sensor_id;sensor_type;location;lat;lon;timestamp;pressure;altitude;pressure_sealevel;temperature
49785;BMP280;35679;38.732;-121.358;2024-01-11T00:00:29;100734.84;;;13.28
49785;BMP280;35679;38.732;-121.358;2024-01-11T00:03:18;100722.41;;;13.29
49785;BMP280;35679;38.732;-121.358;2024-01-11T00:06:07;100724.06;;;13.30
49785;BMP280;35679;38.732;-121.358;2024-01-11T00:08:56;100715.31;;;13.29
49785;BMP280;35679;38.732;-121.358;2024-01-11T00:11:45;100711.81;;;13.29
49785;BMP280;35679;38.732;-121.358;2024-01-11T00:14:35;100704.06;;;13.27
49785;BMP280;35679;38.732;-121.358;2024-01-11T00:17:24;100704.72;;;13.29
49785;BMP280;35679;38.732;-121.358;2024-01-11T00:20:14;100702.06;;;13.29
49785;BMP280;35679;38.732;-121.358;2024-01-11T00:23:03;100707.38;;;13.29
49785;BMP280;35679;38.732;-121.358;2024-01-11T00:25:52;100699.41;;;13.29
49785;BMP280;35679;38.732;-121.358;2024-01-11T00:28:41;100698.38;;;13.30
49785;BMP280;35679;38.732;-121.358;2024-01-11T00:31:30;100692.47;;;13.28
49785;BMP280;35679;38.732;-121.358;2024-01-11T00:34:19;100694.13;;;13.29
49785;BMP280;35679;38.732;-121.358;2024-01-11T00:37:10;100666.97;;;13.27
49785;BMP280;35679;38.732;-121.358;2024-01-11T00:39:59;100672.06;;;13.29
49785;BMP280;35679;38.732;-121.358;2024-01-11T00:42:48;100672.25;;;13.27
49785;BMP280;35679;38.732;-121.358;2024-01-11T00:45:37;100661.47;;;13.29
49785;BMP280;35679;38.732;-121.358;2024-01-11T00:48:26;100664.97;;;13.29
49785;BMP280;35679;38.732;-121.358;2024-01-11T00:51:15;100649.88;;;13.30
49785;BMP280;35679;38.732;-121.358;2024-01-11T00:54:04;100661.13;;;13.32
49785;BMP280;35679;38.732;-121.358;2024-01-11T00:56:53;100640.09;;;13.30
49785;BMP280;35679;38.732;-121.358;2024-01-11T00:59:43;100650.06;;;13.28
49785;BMP280;35679;38.732;-121.358;2024-01-11T01:02:32;100648.41;;;13.27
49785;BMP280;35679;38.732;-121.358;2024-01-11T01:05:21;100651.72;;;13.29
49785;BMP280;35679;38.732;-121.358;2024-01-11T01:08:10;100652.91;;;13.27
49785;BMP280;35679;38.732;-121.358;2024-01-11T01:11:00;100661.47;;;13.29
49785;BMP280;35679;38.732;-121.358;2024-01-11T01:13:49;100649.06;;;13.29
49785;BMP280;35679;38.732;-121.358;2024-01-11T01:16:38;100639.28;;;13.30
49785;BMP280;35679;38.732;-121.358;2024-01-11T01:19:27;100636.44;;;13.31
49785;BMP280;35679;38.732;-121.358;2024-01-11T01:22:16;100627.88;;;13.29
49785;BMP280;35679;38.732;-121.358;2024-01-11T01:25:05;100632.34;;;13.29
49785;BMP280;35679;38.732;-121.358;2024-01-11T01:27:55;100625.22;;;13.29
49785;BMP280;35679;38.732;-121.358;2024-01-11T01:30:43;100631.53;;;13.28
49785;BMP280;35679;38.732;-121.358;2024-01-11T01:33:33;100619.94;;;13.29
49785;BMP280;35679;38.732;-121.358;2024-01-11T01:36:22;100627.03;;;13.29
49785;BMP280;35679;38.732;-121.358;2024-01-11T01:39:11;100634.19;;;13.28
49785;BMP280;35679;38.732;-121.358;2024-01-11T01:42:00;100633.34;;;13.28
49785;BMP280;35679;38.732;-121.358;2024-01-11T01:44:49;100620.94;;;13.28
49785;BMP280;35679;38.732;-121.358;2024-01-11T01:47:39;100613.78;;;13.29
49785;BMP280;35679;38.732;-121.358;2024-01-11T01:50:29;100615.63;;;13.28
49785;BMP280;35679;38.732;-121.358;2024-01-11T01:53:21;100626.22;;;13.28
49785;BMP280;35679;38.732;-121.358;2024-01-11T01:56:11;100631.53;;;13.28
49785;BMP280;35679;38.732;-121.358;2024-01-11T01:59:01;100632.97;;;13.31
49785;BMP280;35679;38.732;-121.358;2024-01-11T02:01:51;100628.88;;;13.28
49785;BMP280;35679;38.732;-121.358;2024-01-11T02:04:40;100623.38;;;13.30
49785;BMP280;35679;38.732;-121.358;2024-01-11T02:07:29;100629.69;;;13.29
49785;BMP280;35679;38.732;-121.358;2024-01-11T02:10:18;100632.34;;;13.29
49785;BMP280;35679;38.732;-121.358;2024-01-11T02:13:07;100633.97;;;13.30
49785;BMP280;35679;38.732;-121.358;2024-01-11T02:15:57;100632.34;;;13.29
49785;BMP280;35679;38.732;-121.358;2024-01-11T02:18:46;100634.78;;;13.30
49785;BMP280;35679;38.732;-121.358;2024-01-11T02:21:36;100640.09;;;13.30
49785;BMP280;35679;38.732;-121.358;2024-01-11T02:24:25;100628.69;;;13.30
49785;BMP280;35679;38.732;-121.358;2024-01-11T02:27:14;100633.78;;;13.31
49785;BMP280;35679;38.732;-121.358;2024-01-11T02:30:04;100637.44;;;13.30
49785;BMP280;35679;38.732;-121.358;2024-01-11T02:32:54;100642.75;;;13.30
49785;BMP280;35679;38.732;-121.358;2024-01-11T02:35:43;100629.69;;;13.29
49785;BMP280;35679;38.732;-121.358;2024-01-11T02:38:34;100633.19;;;13.29
49785;BMP280;35679;38.732;-121.358;2024-01-11T02:41:23;100625.22;;;13.29
49785;BMP280;35679;38.732;-121.358;2024-01-11T02:44:12;100609.31;;;13.29
49785;BMP280;35679;38.732;-121.358;2024-01-11T02:47:01;100606.69;;;13.29
49785;BMP280;35679;38.732;-121.358;2024-01-11T02:49:51;100604.63;;;13.31
49785;BMP280;35679;38.732;-121.358;2024-01-11T02:52:40;100604.63;;;13.31
49785;BMP280;35679;38.732;-121.358;2024-01-11T02:55:29;100609.94;;;13.31
49785;BMP280;35679;38.732;-121.358;2024-01-11T02:58:19;100600.34;;;13.30
49785;BMP280;35679;38.732;-121.358;2024-01-11T03:01:08;100606.28;;;13.32
49785;BMP280;35679;38.732;-121.358;2024-01-11T03:03:58;100604.63;;;13.31
49785;BMP280;35679;38.732;-121.358;2024-01-11T03:06:47;100602.19;;;13.30
49785;BMP280;35679;38.732;-121.358;2024-01-11T03:09:37;100599.34;;;13.31
49785;BMP280;35679;38.732;-121.358;2024-01-11T03:12:26;100593.25;;;13.31
49785;BMP280;35679;38.732;-121.358;2024-01-11T03:15:16;100577.94;;;13.33
49785;BMP280;35679;38.732;-121.358;2024-01-11T03:18:05;100561.25;;;13.32
49785;BMP280;35679;38.732;-121.358;2024-01-11T03:20:55;100557.59;;;13.33
49785;BMP280;35679;38.732;-121.358;2024-01-11T03:23:44;100570.00;;;13.33
49785;BMP280;35679;38.732;-121.358;2024-01-11T03:26:33;100583.25;;;13.33
49785;BMP280;35679;38.732;-121.358;2024-01-11T03:29:23;100587.75;;;13.32
49785;BMP280;35679;38.732;-121.358;2024-01-11T03:32:12;100598.53;;;13.31
49785;BMP280;35679;38.732;-121.358;2024-01-11T03:35:03;100596.06;;;13.29
49785;BMP280;35679;38.732;-121.358;2024-01-11T03:37:53;100606.47;;;13.31
49785;BMP280;35679;38.732;-121.358;2024-01-11T03:40:44;100605.47;;;13.32
49785;BMP280;35679;38.732;-121.358;2024-01-11T03:43:34;100609.13;;;13.31
49785;BMP280;35679;38.732;-121.358;2024-01-11T03:46:24;100613.22;;;13.33
49785;BMP280;35679;38.732;-121.358;2024-01-11T03:49:13;100626.50;;;13.33
49785;BMP280;35679;38.732;-121.358;2024-01-11T03:52:03;100628.28;;;13.33
49785;BMP280;35679;38.732;-121.358;2024-01-11T03:54:52;100635.63;;;13.31
49785;BMP280;35679;38.732;-121.358;2024-01-11T03:57:41;100634.63;;;13.32
49785;BMP280;35679;38.732;-121.358;2024-01-11T04:00:32;100640.94;;;13.31
49785;BMP280;35679;38.732;-121.358;2024-01-11T04:03:22;100655.81;;;13.32
49785;BMP280;35679;38.732;-121.358;2024-01-11T04:06:21;100660.09;;;13.33
49785;BMP280;35679;38.732;-121.358;2024-01-11T04:09:12;100699.03;;;13.32
49785;BMP280;35679;38.732;-121.358;2024-01-11T04:12:02;100728.00;;;13.34
49785;BMP280;35679;38.732;-121.358;2024-01-11T04:14:52;100744.06;;;13.32
49785;BMP280;35679;38.732;-121.358;2024-01-11T04:17:41;100757.97;;;13.34
49785;BMP280;35679;38.732;-121.358;2024-01-11T04:20:31;100765.28;;;13.32
49785;BMP280;35679;38.732;-121.358;2024-01-11T04:23:21;100775.06;;;13.32
49785;BMP280;35679;38.732;-121.358;2024-01-11T04:26:10;100772.56;;;13.30
49785;BMP280;35679;38.732;-121.358;2024-01-11T04:29:00;100787.84;;;13.28
49785;BMP280;35679;38.732;-121.358;2024-01-11T04:31:49;100772.94;;;13.27
49785;BMP280;35679;38.732;-121.358;2024-01-11T04:34:39;100772.94;;;13.27
49785;BMP280;35679;38.732;-121.358;2024-01-11T04:37:28;100779.25;;;13.26
49785;BMP280;35679;38.732;-121.358;2024-01-11T04:40:17;100768.66;;;13.26
49785;BMP280;35679;38.732;-121.358;2024-01-11T04:43:07;100769.66;;;13.25
49785;BMP280;35679;38.732;-121.358;2024-01-11T04:45:57;100760.88;;;13.25
49785;BMP280;35679;38.732;-121.358;2024-01-11T04:48:47;100745.19;;;13.23
49785;BMP280;35679;38.732;-121.358;2024-01-11T04:51:37;100735.59;;;13.22
49785;BMP280;35679;38.732;-121.358;2024-01-11T04:54:27;100732.94;;;13.22
49785;BMP280;35679;38.732;-121.358;2024-01-11T04:57:16;100734.78;;;13.22
49785;BMP280;35679;38.732;-121.358;2024-01-11T05:00:05;100750.47;;;13.23
49785;BMP280;35679;38.732;-121.358;2024-01-11T05:02:55;100756.13;;;13.20
49785;BMP280;35679;38.732;-121.358;2024-01-11T05:05:44;100763.06;;;13.21
49785;BMP280;35679;38.732;-121.358;2024-01-11T05:08:34;100764.72;;;13.22
49785;BMP280;35679;38.732;-121.358;2024-01-11T05:11:23;100775.31;;;13.22
49785;BMP280;35679;38.732;-121.358;2024-01-11T05:14:13;100777.31;;;13.20
49785;BMP280;35679;38.732;-121.358;2024-01-11T05:17:02;100781.00;;;13.19
49785;BMP280;35679;38.732;-121.358;2024-01-11T05:19:51;100786.31;;;13.19
49785;BMP280;35679;38.732;-121.358;2024-01-11T05:22:40;100789.09;;;13.18
49785;BMP280;35679;38.732;-121.358;2024-01-11T05:25:30;100776.72;;;13.18
49785;BMP280;35679;38.732;-121.358;2024-01-11T05:28:25;100792.41;;;13.20
49785;BMP280;35679;38.732;-121.358;2024-01-11T05:31:15;100800.53;;;13.18
49785;BMP280;35679;38.732;-121.358;2024-01-11T05:34:05;100811.16;;;13.18
49785;BMP280;35679;38.732;-121.358;2024-01-11T05:36:54;100807.50;;;13.19
49785;BMP280;35679;38.732;-121.358;2024-01-11T05:39:45;100811.16;;;13.18
49785;BMP280;35679;38.732;-121.358;2024-01-11T05:42:34;100812.94;;;13.18
49785;BMP280;35679;38.732;-121.358;2024-01-11T05:45:23;100819.09;;;13.18
49785;BMP280;35679;38.732;-121.358;2024-01-11T05:48:18;100817.44;;;13.17
49785;BMP280;35679;38.732;-121.358;2024-01-11T05:51:08;100828.03;;;13.17
49785;BMP280;35679;38.732;-121.358;2024-01-11T05:53:57;100835.97;;;13.17
49785;BMP280;35679;38.732;-121.358;2024-01-11T05:56:46;100837.97;;;13.15
49785;BMP280;35679;38.732;-121.358;2024-01-11T05:59:36;100839.81;;;13.15
49785;BMP280;35679;38.732;-121.358;2024-01-11T06:02:25;100841.47;;;13.16
49785;BMP280;35679;38.732;-121.358;2024-01-11T06:05:15;100845.94;;;13.15
49785;BMP280;35679;38.732;-121.358;2024-01-11T06:08:05;100852.22;;;13.14
49785;BMP280;35679;38.732;-121.358;2024-01-11T06:10:55;100854.88;;;13.14
49785;BMP280;35679;38.732;-121.358;2024-01-11T06:13:44;100863.84;;;13.13
49785;BMP280;35679;38.732;-121.358;2024-01-11T06:16:33;100864.00;;;13.12
49785;BMP280;35679;38.732;-121.358;2024-01-11T06:19:22;100866.66;;;13.12
49785;BMP280;35679;38.732;-121.358;2024-01-11T06:22:11;100876.44;;;13.11
49785;BMP280;35679;38.732;-121.358;2024-01-11T06:25:00;100880.09;;;13.10
49785;BMP280;35679;38.732;-121.358;2024-01-11T06:27:49;100885.56;;;13.09
49785;BMP280;35679;38.732;-121.358;2024-01-11T06:30:38;100881.06;;;13.09
49785;BMP280;35679;38.732;-121.358;2024-01-11T06:33:28;100888.41;;;13.08
49785;BMP280;35679;38.732;-121.358;2024-01-11T06:36:17;100896.34;;;13.08
49785;BMP280;35679;38.732;-121.358;2024-01-11T06:39:07;100900.00;;;13.07
49785;BMP280;35679;38.732;-121.358;2024-01-11T06:41:57;100897.34;;;13.07
49785;BMP280;35679;38.732;-121.358;2024-01-11T06:44:46;100901.00;;;13.06
49785;BMP280;35679;38.732;-121.358;2024-01-11T06:47:35;100908.94;;;13.06
49785;BMP280;35679;38.732;-121.358;2024-01-11T06:50:25;100917.88;;;13.05
49785;BMP280;35679;38.732;-121.358;2024-01-11T06:53:14;100918.91;;;13.04
49785;BMP280;35679;38.732;-121.358;2024-01-11T06:56:12;100928.47;;;13.05
49785;BMP280;35679;38.732;-121.358;2024-01-11T06:59:01;100927.00;;;13.02
49785;BMP280;35679;38.732;-121.358;2024-01-11T07:01:51;100945.72;;;13.01
49785;BMP280;35679;38.732;-121.358;2024-01-11T07:04:43;100950.22;;;13.00
49785;BMP280;35679;38.732;-121.358;2024-01-11T07:07:32;100950.41;;;12.99
49785;BMP280;35679;38.732;-121.358;2024-01-11T07:10:21;100951.19;;;12.99
49785;BMP280;35679;38.732;-121.358;2024-01-11T07:13:10;100951.38;;;12.98
49785;BMP280;35679;38.732;-121.358;2024-01-11T07:16:00;100960.31;;;12.97
49785;BMP280;35679;38.732;-121.358;2024-01-11T07:18:51;100952.56;;;12.95
49785;BMP280;35679;38.732;-121.358;2024-01-11T07:21:40;100965.81;;;12.95
49785;BMP280;35679;38.732;-121.358;2024-01-11T07:24:29;100972.91;;;12.95
49785;BMP280;35679;38.732;-121.358;2024-01-11T07:27:25;100964.34;;;12.93
49785;BMP280;35679;38.732;-121.358;2024-01-11T07:30:15;100964.34;;;12.93
49785;BMP280;35679;38.732;-121.358;2024-01-11T07:33:04;100962.69;;;12.92
49785;BMP280;35679;38.732;-121.358;2024-01-11T07:35:54;100968.97;;;12.91
49785;BMP280;35679;38.732;-121.358;2024-01-11T07:38:44;100970.63;;;12.92
49785;BMP280;35679;38.732;-121.358;2024-01-11T07:41:33;100982.41;;;12.89
49785;BMP280;35679;38.732;-121.358;2024-01-11T07:44:25;100978.75;;;12.90
49785;BMP280;35679;38.732;-121.358;2024-01-11T07:47:14;100988.69;;;12.88
49785;BMP280;35679;38.732;-121.358;2024-01-11T07:50:06;100987.88;;;12.88
49785;BMP280;35679;38.732;-121.358;2024-01-11T07:52:56;100996.97;;;12.85
49785;BMP280;35679;38.732;-121.358;2024-01-11T07:55:45;100992.66;;;12.84
49785;BMP280;35679;38.732;-121.358;2024-01-11T07:58:36;101009.34;;;12.85
49785;BMP280;35679;38.732;-121.358;2024-01-11T08:01:26;101011.00;;;12.86
49785;BMP280;35679;38.732;-121.358;2024-01-11T08:04:15;101023.59;;;12.84
49785;BMP280;35679;38.732;-121.358;2024-01-11T08:07:04;101023.78;;;12.82
49785;BMP280;35679;38.732;-121.358;2024-01-11T08:09:54;101033.53;;;12.82
49785;BMP280;35679;38.732;-121.358;2024-01-11T08:12:44;101031.91;;;12.81
49785;BMP280;35679;38.732;-121.358;2024-01-11T08:15:34;101045.94;;;12.81
49785;BMP280;35679;38.732;-121.358;2024-01-11T08:18:24;101052.25;;;12.80
49785;BMP280;35679;38.732;-121.358;2024-01-11T08:21:15;101048.78;;;12.80
49785;BMP280;35679;38.732;-121.358;2024-01-11T08:24:04;101049.94;;;12.77
49785;BMP280;35679;38.732;-121.358;2024-01-11T08:26:54;101063.38;;;12.76
49785;BMP280;35679;38.732;-121.358;2024-01-11T08:29:44;101063.38;;;12.76
49785;BMP280;35679;38.732;-121.358;2024-01-11T08:32:35;101068.84;;;12.74
49785;BMP280;35679;38.732;-121.358;2024-01-11T08:35:27;101065.34;;;12.74
49785;BMP280;35679;38.732;-121.358;2024-01-11T08:38:17;101075.13;;;12.73
49785;BMP280;35679;38.732;-121.358;2024-01-11T08:41:06;101064.72;;;12.72
49785;BMP280;35679;38.732;-121.358;2024-01-11T08:43:56;101063.72;;;12.73
49785;BMP280;35679;38.732;-121.358;2024-01-11T08:46:46;101071.31;;;12.68
49785;BMP280;35679;38.732;-121.358;2024-01-11T08:49:36;101065.88;;;12.69
49785;BMP280;35679;38.732;-121.358;2024-01-11T08:52:25;101071.31;;;12.68
49785;BMP280;35679;38.732;-121.358;2024-01-11T08:55:14;101070.69;;;12.66
49785;BMP280;35679;38.732;-121.358;2024-01-11T08:58:03;101075.31;;;12.64
49785;BMP280;35679;38.732;-121.358;2024-01-11T09:00:52;101074.50;;;12.63
49785;BMP280;35679;38.732;-121.358;2024-01-11T09:03:42;101078.97;;;12.63
49785;BMP280;35679;38.732;-121.358;2024-01-11T09:06:31;101086.91;;;12.63
49785;BMP280;35679;38.732;-121.358;2024-01-11T09:09:22;101088.72;;;12.62
49785;BMP280;35679;38.732;-121.358;2024-01-11T09:12:11;101095.38;;;12.58
49785;BMP280;35679;38.732;-121.358;2024-01-11T09:15:01;101105.13;;;12.58
49785;BMP280;35679;38.732;-121.358;2024-01-11T09:17:50;101115.69;;;12.58
49785;BMP280;35679;38.732;-121.358;2024-01-11T09:20:42;101118.34;;;12.58
49785;BMP280;35679;38.732;-121.358;2024-01-11T09:23:31;101130.94;;;12.56
49785;BMP280;35679;38.732;-121.358;2024-01-11T09:26:20;101138.88;;;12.56
49785;BMP280;35679;38.732;-121.358;2024-01-11T09:29:11;101149.28;;;12.57
49785;BMP280;35679;38.732;-121.358;2024-01-11T09:32:00;101156.88;;;12.60
49785;BMP280;35679;38.732;-121.358;2024-01-11T09:34:49;101164.84;;;12.60
49785;BMP280;35679;38.732;-121.358;2024-01-11T09:37:39;101169.97;;;12.54
49785;BMP280;35679;38.732;-121.358;2024-01-11T09:40:28;101180.56;;;12.54
49785;BMP280;35679;38.732;-121.358;2024-01-11T09:43:17;101185.53;;;12.57
49785;BMP280;35679;38.732;-121.358;2024-01-11T09:46:07;101188.34;;;12.55
49785;BMP280;35679;38.732;-121.358;2024-01-11T09:48:56;101188.19;;;12.57
49785;BMP280;35679;38.732;-121.358;2024-01-11T09:51:46;101198.78;;;12.57
49785;BMP280;35679;38.732;-121.358;2024-01-11T09:54:36;101202.59;;;12.54
49785;BMP280;35679;38.732;-121.358;2024-01-11T09:57:29;101203.75;;;12.52
49785;BMP280;35679;38.732;-121.358;2024-01-11T10:00:19;101215.97;;;12.53
49785;BMP280;35679;38.732;-121.358;2024-01-11T10:03:11;101224.94;;;12.52
49785;BMP280;35679;38.732;-121.358;2024-01-11T10:06:00;101232.88;;;12.52
49785;BMP280;35679;38.732;-121.358;2024-01-11T10:08:50;101246.25;;;12.50
49785;BMP280;35679;38.732;-121.358;2024-01-11T10:11:39;101254.53;;;12.47
49785;BMP280;35679;38.732;-121.358;2024-01-11T10:14:28;101266.59;;;12.50
49785;BMP280;35679;38.732;-121.358;2024-01-11T10:17:20;101279.16;;;12.48
49785;BMP280;35679;38.732;-121.358;2024-01-11T10:20:14;101290.09;;;12.45
49785;BMP280;35679;38.732;-121.358;2024-01-11T10:23:05;101294.53;;;12.44
49785;BMP280;35679;38.732;-121.358;2024-01-11T10:25:59;101294.53;;;12.44
49785;BMP280;35679;38.732;-121.358;2024-01-11T10:28:48;101295.38;;;12.45
49785;BMP280;35679;38.732;-121.358;2024-01-11T10:31:37;101286.78;;;12.43
49785;BMP280;35679;38.732;-121.358;2024-01-11T10:34:27;101278.31;;;12.40
49785;BMP280;35679;38.732;-121.358;2024-01-11T10:37:16;101276.84;;;12.37
49785;BMP280;35679;38.732;-121.358;2024-01-11T10:40:07;101289.75;;;12.40
49785;BMP280;35679;38.732;-121.358;2024-01-11T10:43:03;101294.06;;;12.41
49785;BMP280;35679;38.732;-121.358;2024-01-11T10:45:54;101297.34;;;12.43
49785;BMP280;35679;38.732;-121.358;2024-01-11T10:48:46;101300.16;;;12.42
49785;BMP280;35679;38.732;-121.358;2024-01-11T10:51:36;101303.97;;;12.39
49785;BMP280;35679;38.732;-121.358;2024-01-11T10:54:27;101301.34;;;12.39
49785;BMP280;35679;38.732;-121.358;2024-01-11T10:57:19;101308.28;;;12.40
49785;BMP280;35679;38.732;-121.358;2024-01-11T11:00:09;101306.78;;;12.38
49785;BMP280;35679;38.732;-121.358;2024-01-11T11:03:00;101304.97;;;12.38
49785;BMP280;35679;38.732;-121.358;2024-01-11T11:05:54;101316.53;;;12.37
49785;BMP280;35679;38.732;-121.358;2024-01-11T11:08:46;101317.56;;;12.36
49785;BMP280;35679;38.732;-121.358;2024-01-11T11:11:36;101313.06;;;12.37
49785;BMP280;35679;38.732;-121.358;2024-01-11T11:14:28;101313.56;;;12.32
49785;BMP280;35679;38.732;-121.358;2024-01-11T11:17:17;101319.19;;;12.29
49785;BMP280;35679;38.732;-121.358;2024-01-11T11:20:06;101318.38;;;12.29
49785;BMP280;35679;38.732;-121.358;2024-01-11T11:23:07;101317.53;;;12.28
49785;BMP280;35679;38.732;-121.358;2024-01-11T11:25:58;101318.38;;;12.29
49785;BMP280;35679;38.732;-121.358;2024-01-11T11:28:47;101303.47;;;12.28
49785;BMP280;35679;38.732;-121.358;2024-01-11T11:31:43;101304.00;;;12.31
49785;BMP280;35679;38.732;-121.358;2024-01-11T11:34:40;101310.06;;;12.24
49785;BMP280;35679;38.732;-121.358;2024-01-11T11:37:30;101319.19;;;12.29
49785;BMP280;35679;38.732;-121.358;2024-01-11T11:40:31;101323.47;;;12.22
49785;BMP280;35679;38.732;-121.358;2024-01-11T11:43:21;101318.81;;;12.16
49785;BMP280;35679;38.732;-121.358;2024-01-11T11:46:10;101313.88;;;12.21
49785;BMP280;35679;38.732;-121.358;2024-01-11T11:49:00;101305.94;;;12.21
49785;BMP280;35679;38.732;-121.358;2024-01-11T11:51:49;101320.31;;;12.19
49785;BMP280;35679;38.732;-121.358;2024-01-11T11:54:38;101323.13;;;12.17
49785;BMP280;35679;38.732;-121.358;2024-01-11T11:57:27;101324.28;;;12.15
49785;BMP280;35679;38.732;-121.358;2024-01-11T12:00:17;101324.97;;;12.17
49785;BMP280;35679;38.732;-121.358;2024-01-11T12:03:06;101329.56;;;12.15
49785;BMP280;35679;38.732;-121.358;2024-01-11T12:05:56;101341.00;;;12.15
49785;BMP280;35679;38.732;-121.358;2024-01-11T12:08:46;101338.19;;;12.17
49785;BMP280;35679;38.732;-121.358;2024-01-11T12:11:36;101344.63;;;12.14
49785;BMP280;35679;38.732;-121.358;2024-01-11T12:14:25;101359.50;;;12.15
49785;BMP280;35679;38.732;-121.358;2024-01-11T12:17:15;101362.00;;;12.17
49785;BMP280;35679;38.732;-121.358;2024-01-11T12:20:05;101370.09;;;12.15
49785;BMP280;35679;38.732;-121.358;2024-01-11T12:22:54;101380.69;;;12.15
49785;BMP280;35679;38.732;-121.358;2024-01-11T12:25:43;101366.59;;;12.15
49785;BMP280;35679;38.732;-121.358;2024-01-11T12:28:33;101363.44;;;12.11
49785;BMP280;35679;38.732;-121.358;2024-01-11T12:31:22;101367.59;;;12.14
49785;BMP280;35679;38.732;-121.358;2024-01-11T12:34:12;101369.75;;;12.10
49785;BMP280;35679;38.732;-121.358;2024-01-11T12:37:02;101376.84;;;12.10
49785;BMP280;35679;38.732;-121.358;2024-01-11T12:39:57;101379.31;;;12.11
49785;BMP280;35679;38.732;-121.358;2024-01-11T12:42:47;101392.06;;;12.08
49785;BMP280;35679;38.732;-121.358;2024-01-11T12:45:40;101387.53;;;12.00
49785;BMP280;35679;38.732;-121.358;2024-01-11T12:48:30;101398.13;;;12.00
49785;BMP280;35679;38.732;-121.358;2024-01-11T12:51:20;101406.44;;;12.05
49785;BMP280;35679;38.732;-121.358;2024-01-11T12:54:13;101412.53;;;12.06
49785;BMP280;35679;38.732;-121.358;2024-01-11T12:57:03;101421.28;;;12.06
49785;BMP280;35679;38.732;-121.358;2024-01-11T12:59:52;101423.94;;;12.06
49785;BMP280;35679;38.732;-121.358;2024-01-11T13:02:42;101424.09;;;12.05
49785;BMP280;35679;38.732;-121.358;2024-01-11T13:05:36;101432.88;;;12.05
49785;BMP280;35679;38.732;-121.358;2024-01-11T13:08:25;101432.38;;;12.02
49785;BMP280;35679;38.732;-121.358;2024-01-11T13:11:16;101444.75;;;12.01
49785;BMP280;35679;38.732;-121.358;2024-01-11T13:14:06;101438.47;;;12.02
49785;BMP280;35679;38.732;-121.358;2024-01-11T13:17:00;101450.88;;;12.02
49785;BMP280;35679;38.732;-121.358;2024-01-11T13:19:49;101458.47;;;11.97
49785;BMP280;35679;38.732;-121.358;2024-01-11T13:22:39;101468.88;;;11.98
49785;BMP280;35679;38.732;-121.358;2024-01-11T13:25:28;101469.19;;;11.95
49785;BMP280;35679;38.732;-121.358;2024-01-11T13:28:18;101468.19;;;11.96
49785;BMP280;35679;38.732;-121.358;2024-01-11T13:31:10;101469.19;;;11.95
49785;BMP280;35679;38.732;-121.358;2024-01-11T13:34:00;101467.53;;;11.94
49785;BMP280;35679;38.732;-121.358;2024-01-11T13:36:49;101475.31;;;11.96
49785;BMP280;35679;38.732;-121.358;2024-01-11T13:39:38;101482.56;;;11.94
49785;BMP280;35679;38.732;-121.358;2024-01-11T13:42:27;101482.03;;;11.90
49785;BMP280;35679;38.732;-121.358;2024-01-11T13:45:17;101479.41;;;11.90
49785;BMP280;35679;38.732;-121.358;2024-01-11T13:48:06;101486.19;;;11.93
49785;BMP280;35679;38.732;-121.358;2024-01-11T13:50:55;101487.34;;;11.90
49785;BMP280;35679;38.732;-121.358;2024-01-11T13:53:44;101497.09;;;11.90
49785;BMP280;35679;38.732;-121.358;2024-01-11T13:56:35;101499.22;;;11.86
49785;BMP280;35679;38.732;-121.358;2024-01-11T13:59:24;101499.06;;;11.88
49785;BMP280;35679;38.732;-121.358;2024-01-11T14:02:13;101504.22;;;11.89
49785;BMP280;35679;38.732;-121.358;2024-01-11T14:05:02;101508.00;;;11.87
49785;BMP280;35679;38.732;-121.358;2024-01-11T14:07:52;101509.78;;;11.86
49785;BMP280;35679;38.732;-121.358;2024-01-11T14:10:47;101509.78;;;11.86
49785;BMP280;35679;38.732;-121.358;2024-01-11T14:13:36;101514.44;;;11.84
49785;BMP280;35679;38.732;-121.358;2024-01-11T14:16:25;101518.88;;;11.84
49785;BMP280;35679;38.732;-121.358;2024-01-11T14:19:14;101520.84;;;11.82
49785;BMP280;35679;38.732;-121.358;2024-01-11T14:22:04;101541.16;;;11.81
49785;BMP280;35679;38.732;-121.358;2024-01-11T14:24:53;101546.44;;;11.81
49785;BMP280;35679;38.732;-121.358;2024-01-11T14:27:42;101548.94;;;11.83
49785;BMP280;35679;38.732;-121.358;2024-01-11T14:30:32;101554.53;;;11.80
49785;BMP280;35679;38.732;-121.358;2024-01-11T14:33:22;101550.06;;;11.80
49785;BMP280;35679;38.732;-121.358;2024-01-11T14:36:11;101561.94;;;11.77
49785;BMP280;35679;38.732;-121.358;2024-01-11T14:39:00;101571.84;;;11.75
49785;BMP280;35679;38.732;-121.358;2024-01-11T14:41:52;101566.25;;;11.77
49785;BMP280;35679;38.732;-121.358;2024-01-11T14:44:41;101572.69;;;11.75
49785;BMP280;35679;38.732;-121.358;2024-01-11T14:47:31;101565.88;;;11.73
49785;BMP280;35679;38.732;-121.358;2024-01-11T14:50:20;101575.78;;;11.71
49785;BMP280;35679;38.732;-121.358;2024-01-11T14:53:09;101572.47;;;11.69
49785;BMP280;35679;38.732;-121.358;2024-01-11T14:55:58;101583.88;;;11.69
49785;BMP280;35679;38.732;-121.358;2024-01-11T14:58:48;101590.97;;;11.69
49785;BMP280;35679;38.732;-121.358;2024-01-11T15:01:39;101592.63;;;11.70
49785;BMP280;35679;38.732;-121.358;2024-01-11T15:04:29;101585.81;;;11.67
49785;BMP280;35679;38.732;-121.358;2024-01-11T15:07:18;101578.75;;;11.68
49785;BMP280;35679;38.732;-121.358;2024-01-11T15:10:07;101578.91;;;11.66
49785;BMP280;35679;38.732;-121.358;2024-01-11T15:12:57;101581.66;;;11.65
49785;BMP280;35679;38.732;-121.358;2024-01-11T15:15:46;101578.06;;;11.66
49785;BMP280;35679;38.732;-121.358;2024-01-11T15:18:35;101575.25;;;11.67
49785;BMP280;35679;38.732;-121.358;2024-01-11T15:21:24;101579.88;;;11.65
49785;BMP280;35679;38.732;-121.358;2024-01-11T15:24:13;101581.53;;;11.66